createdAt,value
2022-10-09T17:12:58.620Z,100864.50
2022-10-09T17:15:46.955Z,100865.48
2022-10-09T17:18:37.515Z,100864.20
2022-10-09T17:21:29.749Z,100863.70
2022-10-09T17:24:20.882Z,100863.67
2022-10-09T17:27:10.217Z,100863.11
2022-10-09T17:30:01.705Z,100870.23
2022-10-09T17:33:03.716Z,100868.55
2022-10-09T17:35:51.989Z,100871.27
2022-10-09T17:38:39.919Z,100871.80
2022-10-09T17:41:29.350Z,100873.88
2022-10-09T17:44:17.359Z,100867.46
2022-10-09T17:47:06.327Z,100869.20
2022-10-09T17:49:55.627Z,100868.61
2022-10-09T17:52:44.743Z,100872.94
2022-10-09T17:55:33.432Z,100874.01
2022-10-09T17:58:24.249Z,100870.75
2022-10-09T18:01:12.546Z,100866.98
2022-10-09T18:04:01.146Z,100864.62
2022-10-09T18:06:50.439Z,100867.05
2022-10-09T18:09:39.864Z,100868.95
2022-10-09T18:12:27.657Z,100870.74
2022-10-09T18:15:16.077Z,100869.24
2022-10-09T18:18:05.393Z,100875.42
2022-10-09T18:20:53.809Z,100879.37
2022-10-09T18:23:41.806Z,100878.78
2022-10-09T18:26:29.892Z,100878.90
2022-10-09T18:29:17.790Z,100881.41
2022-10-09T18:32:06.041Z,100885.30
2022-10-09T18:34:54.046Z,100888.74
2022-10-09T18:37:42.063Z,100888.84
2022-10-09T18:40:30.246Z,100883.51
2022-10-09T18:43:25.572Z,100886.33
2022-10-09T18:46:17.376Z,100887.67
2022-10-09T18:49:09.952Z,100888.61
2022-10-09T18:52:01.823Z,100895.19
2022-10-09T18:54:54.240Z,100896.33
2022-10-09T18:57:43.073Z,100898.04
2022-10-09T19:00:32.351Z,100897.70
2022-10-09T19:03:20.321Z,100901.92
2022-10-09T19:06:10.287Z,100899.77
2022-10-09T19:09:01.180Z,100898.55
2022-10-09T19:11:51.201Z,100898.75
2022-10-09T19:14:39.203Z,100897.27
2022-10-09T19:17:27.686Z,100897.15
2022-10-09T19:20:16.146Z,100894.52
2022-10-09T19:23:04.484Z,100892.92
2022-10-09T19:25:55.899Z,100894.50
2022-10-09T19:28:53.308Z,100893.86
2022-10-09T19:31:42.147Z,100894.16
2022-10-09T19:34:30.908Z,100893.36
2022-10-09T19:37:19.065Z,100896.45
2022-10-09T19:40:08.296Z,100895.05
2022-10-09T19:42:58.212Z,100892.44
2022-10-09T19:45:49.324Z,100894.96
2022-10-09T19:48:38.513Z,100895.70
2022-10-09T19:51:27.801Z,100894.61
2022-10-09T19:54:16.082Z,100898.16
2022-10-09T19:57:04.233Z,100895.03
2022-10-09T19:59:52.250Z,100893.68
2022-10-09T20:02:40.417Z,100894.73
2022-10-09T20:05:28.668Z,100889.61
2022-10-09T20:08:16.620Z,100891.98
2022-10-09T20:11:06.055Z,100897.17
2022-10-09T20:13:56.180Z,100897.23
2022-10-09T20:16:44.417Z,100893.06
2022-10-09T20:19:33.171Z,100893.19
2022-10-09T20:22:21.070Z,100892.80
2022-10-09T20:25:09.594Z,100890.17
2022-10-09T20:27:58.036Z,100894.31
2022-10-09T20:30:56.425Z,100896.86
2022-10-09T20:33:48.111Z,100897.77
2022-10-09T20:36:39.170Z,100900.13
2022-10-09T20:39:27.186Z,100902.40
2022-10-09T20:42:15.430Z,100901.10
2022-10-09T20:45:03.569Z,100899.15
2022-10-09T20:47:52.095Z,100898.09
2022-10-09T20:50:42.178Z,100904.21
2022-10-09T20:53:30.144Z,100903.33
2022-10-09T20:56:18.683Z,100901.83
2022-10-09T20:59:08.741Z,100899.97
2022-10-09T21:01:56.407Z,100900.02
2022-10-09T21:04:46.123Z,100899.39
2022-10-09T21:07:33.984Z,100900.11
2022-10-09T21:10:21.736Z,100898.38
2022-10-09T21:13:09.944Z,100897.21
2022-10-09T21:15:57.872Z,100894.98
2022-10-09T21:18:47.021Z,100897.65
2022-10-09T21:21:35.031Z,100889.17
2022-10-09T21:24:23.025Z,100891.52
2022-10-09T21:27:11.191Z,100894.83
2022-10-09T21:29:59.203Z,100895.64
2022-10-09T21:32:47.533Z,100899.69
2022-10-09T21:35:55.521Z,100898.00
2022-10-09T21:38:43.463Z,100893.72
2022-10-09T21:41:33.084Z,100895.75
2022-10-09T21:44:21.629Z,100896.96
2022-10-09T21:47:18.590Z,100893.51
2022-10-09T21:50:07.841Z,100893.04
2022-10-09T21:52:56.428Z,100891.09
2022-10-09T21:55:44.363Z,100890.36
2022-10-09T21:58:35.750Z,100893.07
2022-10-09T22:01:23.293Z,100892.73
2022-10-09T22:04:11.095Z,100888.48
2022-10-09T22:06:59.139Z,100884.95
2022-10-09T22:09:47.373Z,100886.30
2022-10-09T22:12:35.252Z,100888.98
2022-10-09T22:15:23.296Z,100883.67
2022-10-09T22:18:12.389Z,100885.63
2022-10-09T22:21:09.827Z,100884.23
2022-10-09T22:23:57.588Z,100887.48
2022-10-09T22:26:48.128Z,100886.15
2022-10-09T22:29:38.620Z,100886.83
2022-10-09T22:32:26.666Z,100884.00
2022-10-09T22:35:14.442Z,100887.14
2022-10-09T22:38:02.630Z,100886.84
2022-10-09T22:40:50.803Z,100884.77
2022-10-09T22:43:41.433Z,100886.30
2022-10-09T22:46:33.699Z,100886.66
2022-10-09T22:49:21.349Z,100890.27
2022-10-09T22:52:09.159Z,100895.20
2022-10-09T22:54:57.176Z,100895.16
2022-10-09T22:57:45.149Z,100897.20
2022-10-09T23:00:36.751Z,100891.88
2022-10-09T23:03:24.658Z,100888.16
2022-10-09T23:06:19.713Z,100902.38
2022-10-09T23:09:10.872Z,100903.24
2022-10-09T23:12:00.305Z,100902.25
2022-10-09T23:14:47.956Z,100901.95
2022-10-09T23:17:36.006Z,100899.87
2022-10-09T23:20:23.926Z,100896.50
2022-10-09T23:23:11.999Z,100888.23
2022-10-09T23:26:04.934Z,100887.64
2022-10-09T23:28:59.658Z,100889.39
2022-10-09T23:31:48.766Z,100890.08
2022-10-09T23:34:36.466Z,100892.10
2022-10-09T23:37:24.566Z,100889.04
2022-10-09T23:40:12.465Z,100886.27
2022-10-09T23:43:00.352Z,100882.74
2022-10-09T23:45:48.665Z,100884.13
2022-10-09T23:48:37.117Z,100876.41
2022-10-09T23:51:26.468Z,100878.58
2022-10-09T23:54:14.326Z,100876.17
2022-10-09T23:57:02.412Z,100875.76
2022-10-09T23:59:50.318Z,100870.11
